Disclaimer

Please do not use the information listed here in-flight or in-navigation, as they are not provided to us by the airports but are provided by volunteers, so they might be outdated.

Search


Regions


Airport information page

Radio informations:
Tower (TWR) - 118.1 MHz
PMSV METRO - 338.0 MHz
Ground (GND) - 121.9 MHz
Automatic Terminal Information Service (ATIS) - 114.5 MHz
Approach (APP) - 120.0 MHz

Airport informations:
Latitude: 24° 42' 35.40" N
Longitude: 046° 43' 30.60" E
Elevation: 2082 feet - 635 meters
Operating hours: 24 hour operations
Operating agency: Military
Timezone: UTC+3
Fuel: JP-4, Wide cut turbine fuel MIL Spec T-5624

Jet A1, without icing nhibitor.

100/130 MIL Spec, low lead, aviation gasoline (BLUE)

Runway information:
01/19 - 13288 x 147 feet< - >4050 x 45 meters
12/30 - 11778 x 147 feet< - >3590 x 45 meters

Recent METARs:
OERY 191900Z 08010KT 9999 FEW040 18/08 Q1020
OERY 191900Z 08010KT 9999 FEW040 18/08 Q1020
OERY 192100Z 04003KT 9999 SCT040 BKN080 18/09 Q1023

Airport on the map: